Time;durP1;ratioP1;P1;durP2;ratioP2;P2;SDS_P1;SDS_P2;PMS_P1;PMS_P2;Temp;Humidity;BMP_temperature;BMP_pressure;BME280_temperature;BME280_humidity;BME280_pressure;Samples;Min_cycle;Max_cycle;Signal;HPM_P1;HPM_P2
2022/12/12 00:00:09;;;;;;;0.70;0.70;;;;;;;-3.08;87.95;96176.91;29373;224;63008;-57
2022/12/12 00:00:43;;;;;;;0.70;0.70;;;;;;;-3.08;88.34;96176.91;29371;232;64002;-62
2022/12/12 00:01:32;;;;;;;1.23;1.23;;;;;;;-3.07;88.18;96173.22;29373;224;63009;-57
2022/12/12 00:02:04;;;;;;;0.80;0.80;;;;;;;-3.08;88.13;96175.06;29373;325;63005;-56
2022/12/12 00:02:39;;;;;;;0.80;0.80;;;;;;;-3.09;87.82;96181.41;29373;327;63009;-58
2022/12/12 00:03:10;;;;;;;0.70;0.70;;;;;;;-3.11;88.29;96172.06;29373;212;63005;-57
2022/12/12 00:03:43;;;;;;;0.70;0.70;;;;;;;-3.12;87.80;96173.13;29371;233;64013;-57
2022/12/12 00:04:15;;;;;;;0.70;0.70;;;;;;;-3.12;87.70;96175.78;29373;205;63004;-61
2022/12/12 00:04:46;;;;;;;0.70;0.70;;;;;;;-3.13;87.52;96171.50;29373;209;63009;-57
2022/12/12 00:05:18;;;;;;;0.73;0.73;;;;;;;-3.13;87.81;96176.81;29373;209;63010;-57
2022/12/12 00:05:54;;;;;;;0.70;0.70;;;;;;;-3.13;87.79;96179.47;29373;203;63009;-57
2022/12/12 00:06:26;;;;;;;0.80;0.80;;;;;;;-3.12;87.78;96175.78;29371;297;64008;-57
2022/12/12 00:06:57;;;;;;;0.73;0.73;;;;;;;-3.12;87.58;96175.78;29373;202;63015;-57
2022/12/12 00:07:28;;;;;;;0.70;0.70;;;;;;;-3.13;87.59;96180.28;29373;333;63005;-58
2022/12/12 00:08:00;;;;;;;0.70;0.70;;;;;;;-3.15;87.58;96176.22;29373;215;63026;-57
2022/12/12 00:08:31;;;;;;;0.80;0.80;;;;;;;-3.17;87.75;96173.78;29373;207;63005;-57
2022/12/12 00:09:04;;;;;;;0.70;0.70;;;;;;;-3.16;87.77;96185.22;29373;267;63009;-57
2022/12/12 00:09:36;;;;;;;0.70;0.70;;;;;;;-3.16;87.98;96179.91;29373;332;63007;-56
2022/12/12 00:10:09;;;;;;;0.70;0.70;;;;;;;-3.15;87.58;96181.53;29373;211;63009;-57
2022/12/12 00:10:40;;;;;;;0.70;0.70;;;;;;;-3.16;87.55;96179.91;29373;222;63005;-57
2022/12/12 00:11:12;;;;;;;0.80;0.80;;;;;;;-3.16;87.83;96179.91;29373;209;63009;-58
2022/12/12 00:11:43;;;;;;;0.70;0.70;;;;;;;-3.15;88.12;96186.84;29371;209;64009;-57
2022/12/12 00:12:14;;;;;;;0.70;0.70;;;;;;;-3.13;88.01;96179.47;29373;233;63009;-59
2022/12/12 00:12:46;;;;;;;1.42;1.42;;;;;;;-3.15;88.11;96177.03;29373;241;63011;-57
2022/12/12 00:13:17;;;;;;;0.80;0.80;;;;;;;-3.16;88.15;96174.59;29373;212;63009;-57
2022/12/12 00:13:49;;;;;;;0.80;0.80;;;;;;;-3.16;88.09;96182.56;29373;288;63004;-57
2022/12/12 00:14:21;;;;;;;0.80;0.80;;;;;;;-3.17;88.65;96180.94;29373;197;63008;-58
2022/12/12 00:14:52;;;;;;;0.80;0.80;;;;;;;-3.17;88.79;96179.09;29373;219;63005;-57
2022/12/12 00:15:24;;;;;;;0.77;0.77;;;;;;;-3.17;88.51;96178.28;29373;197;63009;-57
2022/12/12 00:15:57;;;;;;;0.70;0.70;;;;;;;-3.19;88.78;96178.50;29371;197;64009;-57
2022/12/12 00:16:29;;;;;;;1.52;1.42;;;;;;;-3.19;88.54;96177.69;29373;254;63009;-59
2022/12/12 00:17:00;;;;;;;1.23;1.23;;;;;;;-3.21;87.83;96177.13;29373;196;63005;-57
2022/12/12 00:17:32;;;;;;;2.58;2.37;;;;;;;-3.23;87.80;96179.19;29373;205;63009;-58
2022/12/12 00:18:03;;;;;;;0.70;0.70;;;;;;;-3.25;88.06;96178.59;29372;220;64005;-57
2022/12/12 00:18:38;;;;;;;0.80;0.80;;;;;;;-3.26;87.76;96174.31;29373;243;63009;-57
2022/12/12 00:19:09;;;;;;;0.70;0.70;;;;;;;-3.23;87.82;96176.53;29373;202;63004;-58
2022/12/12 00:19:42;;;;;;;0.70;0.70;;;;;;;-3.22;87.82;96171.00;29373;202;63009;-57
2022/12/12 00:20:13;;;;;;;0.90;0.90;;;;;;;-3.23;87.43;96171.22;29373;268;63014;-57
2022/12/12 00:20:44;;;;;;;0.70;0.70;;;;;;;-3.23;87.71;96168.56;29373;210;63023;-58
2022/12/12 00:21:22;;;;;;;0.90;0.90;;;;;;;-3.22;87.83;96176.31;29371;214;64009;-56
2022/12/12 00:21:53;;;;;;;0.80;0.80;;;;;;;-3.19;87.70;96169.75;29373;255;63008;-57
2022/12/12 00:22:25;;;;;;;0.80;0.80;;;;;;;-3.21;87.16;96171.81;29373;250;63005;-58
2022/12/12 00:22:56;;;;;;;0.70;0.70;;;;;;;-3.19;87.45;96172.41;29373;204;63009;-57
2022/12/12 00:23:27;;;;;;;0.70;0.70;;;;;;;-3.19;87.31;96173.19;29373;241;63005;-58
2022/12/12 00:23:58;;;;;;;0.80;0.80;;;;;;;-3.18;87.55;96171.34;29371;233;64013;-57
2022/12/12 00:24:29;;;;;;;0.80;0.80;;;;;;;-3.20;87.33;96171.59;29373;253;63005;-56
2022/12/12 00:25:04;;;;;;;0.80;0.80;;;;;;;-3.20;87.57;96173.44;29373;207;63009;-56
2022/12/12 00:25:35;;;;;;;0.80;0.80;;;;;;;-3.22;87.32;96181.59;29373;198;63005;-56
2022/12/12 00:26:14;;;;;;;0.70;0.70;;;;;;;-3.21;87.18;96180.56;29373;215;63009;-56
2022/12/12 00:26:46;;;;;;;0.77;0.77;;;;;;;-3.22;87.00;96175.50;29373;221;63017;-56
2022/12/12 00:27:18;;;;;;;8.27;7.62;;;;;;;-3.21;87.13;96177.13;29374;232;63009;-56
2022/12/12 00:27:49;;;;;;;0.77;0.77;;;;;;;-3.21;86.92;96177.13;29374;210;63004;-56
2022/12/12 00:28:21;;;;;;;0.80;0.80;;;;;;;-3.21;87.12;96174.47;29372;206;64013;-57
2022/12/12 00:28:53;;;;;;;0.80;0.80;;;;;;;-3.21;87.16;96179.75;29374;227;63004;-57
2022/12/12 00:29:25;;;;;;;0.70;0.70;;;;;;;-3.23;86.84;96179.19;29374;277;63008;-56
2022/12/12 00:29:56;;;;;;;0.75;0.75;;;;;;;-3.23;86.85;96176.53;29374;222;63005;-57
2022/12/12 00:30:28;;;;;;;0.70;0.70;;;;;;;-3.23;86.90;96181.84;29374;227;63009;-61
2022/12/12 00:31:00;;;;;;;0.90;0.90;;;;;;;-3.22;87.26;96186.09;29374;215;63005;-57
2022/12/12 00:31:32;;;;;;;0.80;0.80;;;;;;;-3.21;87.20;96185.06;29374;202;63009;-57
2022/12/12 00:32:04;;;;;;;0.70;0.70;;;;;;;-3.19;87.48;96183.00;29374;202;63005;-57
2022/12/12 00:32:35;;;;;;;0.80;0.80;;;;;;;-3.20;87.03;96178.72;29374;210;63009;-57
2022/12/12 00:33:06;;;;;;;0.80;0.80;;;;;;;-3.22;86.55;96186.09;29374;229;63005;-57
2022/12/12 00:33:38;;;;;;;0.70;0.70;;;;;;;-3.22;86.61;96181.59;29372;259;64013;-57
2022/12/12 00:34:09;;;;;;;0.80;0.80;;;;;;;-3.22;86.54;96180.81;29374;210;63008;-56
2022/12/12 00:34:40;;;;;;;1.17;1.17;;;;;;;-3.23;86.59;96184.47;29374;235;63009;-57
2022/12/12 00:35:11;;;;;;;0.80;0.80;;;;;;;-3.23;86.67;96179.19;29374;241;63004;-56
2022/12/12 00:35:43;;;;;;;0.80;0.80;;;;;;;-3.23;86.35;96179.19;29374;203;63009;-57
2022/12/12 00:36:20;;;;;;;0.70;0.70;;;;;;;-3.23;86.43;96176.53;29374;218;63004;-56
2022/12/12 00:36:51;;;;;;;0.80;0.80;;;;;;;-3.24;86.23;96182.87;29374;206;63008;-56
2022/12/12 00:37:22;;;;;;;0.80;0.80;;;;;;;-3.22;86.34;96180.81;29374;204;63005;-56
2022/12/12 00:37:54;;;;;;;0.70;0.70;;;;;;;-3.21;86.54;96182.41;29374;231;63009;-57
2022/12/12 00:38:29;;;;;;;0.70;0.70;;;;;;;-3.21;86.40;96177.94;29374;220;63005;-57
2022/12/12 00:39:05;;;;;;;0.80;0.80;;;;;;;-3.22;85.98;96178.16;29372;226;64013;-57
2022/12/12 00:39:40;;;;;;;0.70;0.70;;;;;;;-3.24;86.05;96178.38;29374;211;63016;-57
2022/12/12 00:40:12;;;;;;;0.73;0.73;;;;;;;-3.25;85.64;96182.06;29374;250;63009;-57
2022/12/12 00:40:44;;;;;;;0.80;0.80;;;;;;;-3.25;85.68;96181.25;29374;247;63005;-57
2022/12/12 00:41:16;;;;;;;0.80;0.80;;;;;;;-3.26;85.60;96179.62;29374;221;63009;-56
2022/12/12 00:41:48;;;;;;;0.80;0.80;;;;;;;-3.26;85.87;96179.62;29374;227;63009;-57
2022/12/12 00:42:19;;;;;;;0.80;0.80;;;;;;;-3.27;85.72;96184.13;29374;233;63009;-60
2022/12/12 00:42:51;;;;;;;0.73;0.73;;;;;;;-3.27;85.97;96178.00;29374;205;63004;-57
2022/12/12 00:43:24;;;;;;;0.70;0.70;;;;;;;-3.26;86.29;96190.22;29374;202;63018;-61
2022/12/12 00:43:55;;;;;;;0.70;0.70;;;;;;;-3.27;85.84;96191.25;29374;209;63004;-57
2022/12/12 00:44:26;;;;;;;0.80;0.80;;;;;;;-3.29;85.83;96185.38;29372;211;64013;-57
2022/12/12 00:44:58;;;;;;;0.80;0.80;;;;;;;-3.30;85.92;96189.06;29374;223;63010;-58
2022/12/12 00:45:29;;;;;;;0.82;0.82;;;;;;;-3.30;86.36;96178.44;29374;213;63009;-57
2022/12/12 00:46:02;;;;;;;0.80;0.80;;;;;;;-3.30;85.97;96189.06;29374;244;63005;-58
2022/12/12 00:46:33;;;;;;;0.80;0.80;;;;;;;-3.31;86.16;96182.13;29374;238;63009;-57
2022/12/12 00:47:04;;;;;;;0.80;0.80;;;;;;;-3.31;85.74;96187.44;29374;298;63011;-57
2022/12/12 00:47:35;;;;;;;0.80;0.80;;;;;;;-3.33;86.06;96185.00;29374;264;63009;-57
2022/12/12 00:48:08;;;;;;;0.80;0.80;;;;;;;-3.32;85.71;96185.81;29374;214;63005;-57
2022/12/12 00:48:40;;;;;;;0.70;0.70;;;;;;;-3.34;86.04;96182.56;29374;235;63009;-57
2022/12/12 00:49:12;;;;;;;0.80;0.80;;;;;;;-3.34;86.43;96182.56;29374;234;63004;-57
2022/12/12 00:49:44;;;;;;;0.80;0.80;;;;;;;-3.34;86.52;96190.53;29372;216;64013;-57
2022/12/12 00:50:15;;;;;;;0.80;0.80;;;;;;;-3.33;86.40;96185.00;29374;205;63004;-57
2022/12/12 00:50:47;;;;;;;0.80;0.80;;;;;;;-3.32;86.48;96185.81;29374;203;63009;-57
2022/12/12 00:51:20;;;;;;;0.80;0.80;;;;;;;-3.32;86.36;96183.97;29374;201;63004;-56
2022/12/12 00:51:52;;;;;;;0.80;0.80;;;;;;;-3.31;86.42;96190.09;29374;234;63008;-57
2022/12/12 00:52:26;;;;;;;0.80;0.80;;;;;;;-3.31;86.48;96188.25;29374;242;63005;-57
2022/12/12 00:52:58;;;;;;;0.80;0.80;;;;;;;-3.30;86.42;96194.38;29374;228;63009;-61
2022/12/12 00:53:29;;;;;;;0.80;0.80;;;;;;;-3.30;86.42;96191.72;29374;238;63005;-56
2022/12/12 00:54:05;;;;;;;0.82;0.82;;;;;;;-3.28;86.50;96192.28;29374;260;63009;-61
2022/12/12 00:54:36;;;;;;;0.80;0.80;;;;;;;-3.28;86.41;96192.28;29374;223;63005;-57
2022/12/12 00:55:12;;;;;;;0.80;0.80;;;;;;;-3.29;86.53;96185.38;29372;264;64013;-57
2022/12/12 00:55:43;;;;;;;1.00;1.00;;;;;;;-3.28;86.46;96192.28;29374;260;63005;-57
2022/12/12 00:56:19;;;;;;;0.70;0.70;;;;;;;-3.29;86.26;96190.69;29374;274;63009;-61
2022/12/12 00:56:51;;;;;;;0.80;0.80;;;;;;;-3.31;85.92;96182.94;29374;198;63004;-61
2022/12/12 00:57:22;;;;;;;0.70;0.70;;;;;;;-3.31;86.05;96187.44;29374;228;63016;-61
2022/12/12 00:57:53;;;;;;;0.70;0.70;;;;;;;-3.31;86.06;96187.44;29374;197;63004;-57
2022/12/12 00:58:26;;;;;;;0.80;0.80;;;;;;;-3.30;86.04;96189.87;29374;232;63008;-57
2022/12/12 00:58:57;;;;;;;0.80;0.80;;;;;;;-3.30;85.71;96183.75;29374;226;63015;-57
2022/12/12 00:59:28;;;;;;;0.80;0.80;;;;;;;-3.30;85.84;96184.56;29374;284;63009;-57
2022/12/12 01:00:00;;;;;;;0.77;0.77;;;;;;;-3.29;85.98;96185.38;29374;205;63005;-57
2022/12/12 01:00:33;;;;;;;0.80;0.80;;;;;;;-3.30;85.92;96189.87;29372;218;64014;-57
2022/12/12 01:01:09;;;;;;;0.75;0.75;;;;;;;-3.31;86.06;96185.59;29374;203;63005;-58
2022/12/12 01:01:41;;;;;;;0.80;0.80;;;;;;;-3.33;85.90;96182.34;29372;246;64013;-57
2022/12/12 01:02:12;;;;;;;0.80;0.80;;;;;;;-3.33;85.91;96186.84;29375;197;63009;-57
2022/12/12 01:02:43;;;;;;;0.85;0.85;;;;;;;-3.34;85.90;96187.88;29375;249;63020;-57
2022/12/12 01:03:15;;;;;;;0.80;0.80;;;;;;;-3.34;85.67;96182.56;29375;246;63005;-57
2022/12/12 01:03:46;;;;;;;0.80;0.80;;;;;;;-3.34;85.84;96187.88;29375;250;63009;-58
2022/12/12 01:04:17;;;;;;;0.80;0.80;;;;;;;-3.35;85.78;96180.94;29374;204;63004;-61
2022/12/12 01:04:49;;;;;;;0.80;0.80;;;;;;;-3.34;85.76;96182.56;29375;203;63009;-57
2022/12/12 01:05:20;;;;;;;0.80;0.80;;;;;;;-3.33;85.85;96178.88;29375;211;63004;-57
2022/12/12 01:05:52;;;;;;;0.70;0.70;;;;;;;-3.33;85.83;96187.66;29375;239;63008;-57
2022/12/12 01:06:24;;;;;;;0.80;0.80;;;;;;;-3.33;85.66;96184.19;29375;231;63004;-61
2022/12/12 01:06:55;;;;;;;0.75;0.75;;;;;;;-3.33;85.75;96181.53;29373;227;64014;-57
2022/12/12 01:07:27;;;;;;;0.80;0.80;;;;;;;-3.33;85.67;96189.50;29375;233;63005;-57
2022/12/12 01:08:00;;;;;;;0.80;0.80;;;;;;;-3.33;85.63;96184.19;29373;221;64014;-61
2022/12/12 01:08:32;;;;;;;0.70;0.70;;;;;;;-3.34;85.67;96180.72;29375;286;63005;-58
2022/12/12 01:09:03;;;;;;;0.75;0.75;;;;;;;-3.33;85.85;96181.53;29375;226;63009;-58
2022/12/12 01:09:35;;;;;;;0.80;0.80;;;;;;;-3.34;85.83;96183.37;29375;197;63005;-57
2022/12/12 01:10:08;;;;;;;0.80;0.80;;;;;;;-3.35;86.23;96178.28;29375;222;63009;-61
2022/12/12 01:10:40;;;;;;;5.68;1.90;;;;;;;-3.36;85.94;96185.44;29376;227;63005;-57
2022/12/12 01:11:13;;;;;;;0.70;0.70;;;;;;;-3.38;85.68;96183.00;29376;244;63009;-58
2022/12/12 01:11:44;;;;;;;1.48;1.48;;;;;;;-3.41;85.58;96188.75;29376;224;63010;-58
2022/12/12 01:12:16;;;;;;;0.80;0.80;;;;;;;-3.41;85.63;96186.09;29374;208;64013;-57
2022/12/12 01:12:47;;;;;;;0.70;0.70;;;;;;;-3.42;85.06;96184.50;29376;213;63004;-56
2022/12/12 01:13:18;;;;;;;0.73;0.73;;;;;;;-3.43;85.03;96182.06;29376;212;63004;-57
2022/12/12 01:13:52;;;;;;;0.80;0.80;;;;;;;-3.46;84.49;96185.97;29376;218;63004;-61
2022/12/12 01:14:24;;;;;;;0.80;0.80;;;;;;;-3.49;84.82;96186.44;29376;267;63025;-57
2022/12/12 01:14:56;;;;;;;0.70;0.70;;;;;;;-3.50;84.96;96187.47;29375;213;63005;-57
2022/12/12 01:15:27;;;;;;;0.80;0.80;;;;;;;-3.53;84.87;96190.56;29376;265;63009;-57
2022/12/12 01:15:59;;;;;;;0.73;0.73;;;;;;;-3.53;84.83;96185.25;29376;202;63005;-58
2022/12/12 01:16:31;;;;;;;0.80;0.80;;;;;;;-3.55;84.61;96184.66;29376;219;63009;-57
2022/12/12 01:17:02;;;;;;;0.80;0.80;;;;;;;-3.55;85.30;96192.63;29374;200;64009;-57
2022/12/12 01:17:36;;;;;;;0.70;0.70;;;;;;;-3.57;85.39;96186.72;29376;243;63009;-58
2022/12/12 01:18:08;;;;;;;0.75;0.75;;;;;;;-3.56;85.31;96185.69;29376;237;63005;-57
2022/12/12 01:18:41;;;;;;;0.80;0.80;;;;;;;-3.54;85.93;96188.13;29376;243;63009;-61
2022/12/12 01:19:13;;;;;;;0.70;0.70;;;;;;;-3.53;85.92;96185.25;29376;239;63004;-57
2022/12/12 01:19:44;;;;;;;0.80;0.80;;;;;;;-3.53;86.05;96187.09;29376;229;63009;-57
2022/12/12 01:20:22;;;;;;;0.73;0.73;;;;;;;-3.55;85.69;96189.97;29376;240;63004;-56
2022/12/12 01:20:54;;;;;;;3.25;3.00;;;;;;;-3.55;85.96;96187.31;29376;228;63009;-58
2022/12/12 01:21:25;;;;;;;0.70;0.70;;;;;;;-3.55;85.82;96187.31;29376;340;63004;-57
2022/12/12 01:21:57;;;;;;;0.80;0.80;;;;;;;-3.54;85.47;96182.81;29374;243;64014;-57
2022/12/12 01:22:28;;;;;;;0.73;0.73;;;;;;;-3.56;84.87;96188.34;29376;198;63005;-57
2022/12/12 01:23:00;;;;;;;2.03;1.92;;;;;;;-3.59;85.13;96191.44;29375;213;63009;-58
2022/12/12 01:23:31;;;;;;;0.90;0.90;;;;;;;-3.61;85.03;96182.87;29375;199;63005;-57
2022/12/12 01:24:03;;;;;;;1.15;1.10;;;;;;;-3.61;85.26;96184.72;29375;291;63009;-57
2022/12/12 01:24:38;;;;;;;0.80;0.80;;;;;;;-3.61;85.40;96185.53;29375;368;63005;-57
2022/12/12 01:25:12;;;;;;;0.70;0.70;;;;;;;-3.58;85.68;96192.25;29374;275;64009;-57
2022/12/12 01:25:43;;;;;;;0.70;0.70;;;;;;;-3.57;85.76;96184.06;29373;219;64009;-58
2022/12/12 01:26:18;;;;;;;0.77;0.77;;;;;;;-3.55;85.92;96179.34;29376;211;63009;-58
2022/12/12 01:26:49;;;;;;;0.73;0.73;;;;;;;-3.53;85.84;96185.25;29375;241;63004;-58
2022/12/12 01:27:21;;;;;;;0.80;0.80;;;;;;;-3.51;86.09;96193.78;29375;216;63009;-58
2022/12/12 01:27:53;;;;;;;0.60;0.60;;;;;;;-3.49;85.82;96189.09;29375;214;63004;-58
2022/12/12 01:28:24;;;;;;;0.70;0.70;;;;;;;-3.48;85.85;96182.75;29375;207;63018;-57
2022/12/12 01:28:55;;;;;;;0.80;0.80;;;;;;;-3.46;85.70;96190.44;29375;205;63009;-57
2022/12/12 01:29:27;;;;;;;0.80;0.80;;;;;;;-3.46;85.81;96191.25;29375;202;63009;-57
2022/12/12 01:30:00;;;;;;;0.80;0.80;;;;;;;-3.46;85.90;96185.97;29375;242;63005;-57
2022/12/12 01:30:32;;;;;;;0.80;0.80;;;;;;;-3.44;85.60;96189.19;29373;202;64014;-57
2022/12/12 01:31:05;;;;;;;0.70;0.70;;;;;;;-3.42;85.72;96186.31;29373;209;64009;-62
2022/12/12 01:31:36;;;;;;;0.70;0.70;;;;;;;-3.42;85.72;96189.78;29375;205;63009;-58
2022/12/12 01:32:08;;;;;;;0.80;0.80;;;;;;;-3.40;85.65;96185.06;29375;282;63005;-59
2022/12/12 01:32:40;;;;;;;0.75;0.75;;;;;;;-3.41;85.09;96191.41;29375;253;63009;-58
2022/12/12 01:33:11;;;;;;;0.70;0.70;;;;;;;-3.40;85.08;96195.69;29375;214;63005;-57
2022/12/12 01:33:46;;;;;;;0.80;0.80;;;;;;;-3.41;85.04;96188.75;29375;306;63009;-57
2022/12/12 01:34:17;;;;;;;0.70;0.70;;;;;;;-3.39;85.23;96196.50;29373;213;64009;-61
2022/12/12 01:34:48;;;;;;;0.80;0.80;;;;;;;-3.39;85.32;96192.00;29375;230;63009;-58
2022/12/12 01:35:21;;;;;;;0.70;0.70;;;;;;;-3.36;85.06;96190.75;29375;222;63004;-58
2022/12/12 01:35:53;;;;;;;0.70;0.70;;;;;;;-3.35;85.15;96191.56;29375;202;63009;-57
2022/12/12 01:36:24;;;;;;;0.80;0.80;;;;;;;-3.35;85.02;96186.25;29375;301;63004;-62
2022/12/12 01:36:55;;;;;;;0.80;0.80;;;;;;;-3.35;84.78;96191.56;29375;209;63009;-58
2022/12/12 01:37:27;;;;;;;0.80;0.80;;;;;;;-3.35;84.51;96192.38;29375;277;63005;-57
2022/12/12 01:37:58;;;;;;;0.70;0.70;;;;;;;-3.35;84.69;96188.91;29375;231;63014;-57
2022/12/12 01:38:29;;;;;;;0.80;0.80;;;;;;;-3.35;84.55;96191.56;29375;198;63005;-59
2022/12/12 01:39:00;;;;;;;0.80;0.80;;;;;;;-3.35;84.26;96192.38;29375;212;63009;-57
2022/12/12 01:39:31;;;;;;;0.68;0.68;;;;;;;-3.40;83.74;96190.37;29373;210;64009;-58
2022/12/12 01:40:05;;;;;;;0.70;0.70;;;;;;;-3.43;83.72;96185.50;29375;289;63009;-58
2022/12/12 01:40:38;;;;;;;0.70;0.70;;;;;;;-3.44;83.65;96194.50;29375;204;63005;-58
2022/12/12 01:41:09;;;;;;;0.70;0.70;;;;;;;-3.46;83.74;96191.25;29373;211;64013;-58
2022/12/12 01:41:42;;;;;;;0.70;0.70;;;;;;;-3.46;83.84;96185.97;29375;275;63004;-58
2022/12/12 01:42:16;;;;;;;0.77;0.77;;;;;;;-3.47;83.88;96189.66;29374;361;64009;-57
2022/12/12 01:42:48;;;;;;;0.60;0.60;;;;;;;-3.49;83.72;96190.91;29375;362;63004;-58
2022/12/12 01:43:23;;;;;;;1.15;1.15;;;;;;;-3.51;84.30;96190.34;29375;292;63009;-59
2022/12/12 01:43:55;;;;;;;0.70;0.70;;;;;;;-3.52;84.39;96186.06;29375;271;63004;-58
2022/12/12 01:44:42;;;;;;;1.75;1.75;;;;;;;-3.50;84.55;96192.75;29373;289;64014;-59
2022/12/12 01:45:50;;;;;;;1.90;1.80;;;;;;;-3.48;84.81;96188.06;29375;280;63011;-56
2022/12/12 01:46:36;;;;;;;0.80;0.80;;;;;;;-3.47;84.78;96184.38;29375;364;63005;-58
2022/12/12 01:47:07;;;;;;;0.70;0.70;;;;;;;-3.47;84.41;96194.16;29373;275;64013;-59
2022/12/12 01:47:38;;;;;;;0.70;0.70;;;;;;;-3.49;84.35;96189.09;29375;231;63005;-58
2022/12/12 01:48:10;;;;;;;0.70;0.70;;;;;;;-3.48;84.51;96188.06;29375;258;63009;-58
2022/12/12 01:48:52;;;;;;;0.70;0.70;;;;;;;-3.48;84.49;96188.06;29375;208;63004;-58
2022/12/12 01:49:26;;;;;;;0.80;0.80;;;;;;;-3.48;84.28;96188.06;29375;236;63009;-58
2022/12/12 01:50:03;;;;;;;0.73;0.73;;;;;;;-3.47;84.17;96186.22;29375;243;63004;-57
2022/12/12 01:50:34;;;;;;;0.70;0.70;;;;;;;-3.47;84.56;96184.38;29373;293;64013;-58
2022/12/12 01:51:10;;;;;;;0.80;0.80;;;;;;;-3.48;84.35;96182.75;29375;293;63004;-58
2022/12/12 01:51:43;;;;;;;0.77;0.77;;;;;;;-3.50;84.42;96194.59;29375;245;63008;-58
2022/12/12 01:52:19;;;;;;;0.80;0.80;;;;;;;-3.52;84.46;96192.19;29375;273;63005;-58
2022/12/12 01:52:50;;;;;;;0.70;0.70;;;;;;;-3.53;84.37;96189.75;29375;197;63012;-58
2022/12/12 01:53:26;;;;;;;0.80;0.80;;;;;;;-3.55;84.55;96187.31;29375;297;63009;-61
2022/12/12 01:54:06;;;;;;;0.75;0.75;;;;;;;-3.55;84.30;96191.81;29375;368;63009;-59
2022/12/12 01:54:44;;;;;;;0.80;0.80;;;;;;;-3.57;84.22;96189.37;29375;261;63005;-58
2022/12/12 01:55:20;;;;;;;0.80;0.80;;;;;;;-3.59;83.95;96186.12;29375;210;63009;-57
2022/12/12 01:55:53;;;;;;;0.80;0.80;;;;;;;-3.60;84.16;96189.81;29373;215;64009;-57
2022/12/12 01:56:28;;;;;;;0.70;0.70;;;;;;;-3.59;84.40;96195.94;29375;232;63009;-57
2022/12/12 01:57:06;;;;;;;0.80;0.80;;;;;;;-3.61;84.30;96193.50;29375;221;63004;-58
2022/12/12 01:57:43;;;;;;;0.70;0.70;;;;;;;-3.59;84.70;96193.28;29375;207;63009;-58
2022/12/12 01:58:15;;;;;;;0.80;0.80;;;;;;;-3.60;85.16;96195.13;29375;214;63004;-58
2022/12/12 01:58:50;;;;;;;4.57;4.37;;;;;;;-3.58;85.53;96194.91;29375;233;63008;-58
2022/12/12 01:59:24;;;;;;;1.67;1.62;;;;;;;-3.59;86.07;96195.94;29375;275;63004;-58
2022/12/12 01:59:57;;;;;;;0.73;0.73;;;;;;;-3.59;86.05;96196.75;29375;271;63009;-57
2022/12/12 02:00:29;;;;;;;0.80;0.80;;;;;;;-3.60;86.02;96189.81;29373;246;64009;-58
2022/12/12 02:01:01;;;;;;;0.70;0.70;;;;;;;-3.62;86.23;96191.88;29373;202;64013;-58
2022/12/12 02:01:33;;;;;;;0.70;0.70;;;;;;;-3.61;86.59;96198.78;29375;289;63005;-58
2022/12/12 02:02:06;;;;;;;0.70;0.70;;;;;;;-3.61;86.22;96190.84;29375;293;63009;-58
2022/12/12 02:02:42;;;;;;;0.80;0.80;;;;;;;-3.61;86.21;96193.50;29375;223;63005;-58
2022/12/12 02:03:13;;;;;;;0.73;0.73;;;;;;;-3.63;85.70;96195.56;29375;375;63009;-58
2022/12/12 02:03:47;;;;;;;0.80;0.80;;;;;;;-3.64;85.38;96198.41;29373;280;64009;-58
2022/12/12 02:04:20;;;;;;;0.77;0.77;;;;;;;-3.66;85.29;96196.00;29375;227;63009;-58
2022/12/12 02:04:55;;;;;;;0.80;0.80;;;;;;;-3.67;85.49;96194.38;29375;202;63004;-58
2022/12/12 02:05:47;;;;;;;0.80;0.80;;;;;;;-3.67;85.29;96194.38;29375;292;63008;-58
2022/12/12 02:06:23;;;;;;;0.70;0.70;;;;;;;-3.65;85.42;96192.31;29373;220;64009;-58
2022/12/12 02:06:55;;;;;;;0.80;0.80;;;;;;;-3.64;85.43;96188.63;29375;219;63014;-57
2022/12/12 02:07:26;;;;;;;0.73;0.73;;;;;;;-3.61;85.54;96192.69;29375;203;63005;-58
2022/12/12 02:08:06;;;;;;;0.70;0.70;;;;;;;-3.60;85.45;96187.16;29375;202;63009;-58
2022/12/12 02:08:38;;;;;;;1.62;1.52;;;;;;;-3.60;85.51;96195.13;29375;227;63005;-58
2022/12/12 02:09:12;;;;;;;0.80;0.80;;;;;;;-3.61;84.58;96193.50;29375;202;63009;-58
2022/12/12 02:09:45;;;;;;;0.73;0.73;;;;;;;-3.63;84.48;96195.56;29375;219;63005;-58
2022/12/12 02:10:17;;;;;;;0.80;0.80;;;;;;;-3.65;84.43;96197.59;29373;313;64013;-57
2022/12/12 02:10:49;;;;;;;0.80;0.80;;;;;;;-3.66;84.68;96190.69;29375;250;63004;-59
2022/12/12 02:11:20;;;;;;;0.77;0.77;;;;;;;-3.68;84.18;96198.06;29375;202;63009;-58
2022/12/12 02:11:54;;;;;;;0.75;0.75;;;;;;;-3.68;84.60;96202.53;29375;329;63004;-58
2022/12/12 02:12:25;;;;;;;0.80;0.80;;;;;;;-3.67;84.81;96194.38;29373;211;64013;-58
2022/12/12 02:13:08;;;;;;;0.80;0.80;;;;;;;-3.66;84.28;96196.00;29375;221;63004;-57
2022/12/12 02:13:39;;;;;;;0.80;0.80;;;;;;;-3.65;84.53;96202.09;29373;218;64013;-58
2022/12/12 02:14:17;;;;;;;0.70;0.70;;;;;;;-3.67;83.86;96198.84;29375;241;63005;-57
2022/12/12 02:14:51;;;;;;;0.80;0.80;;;;;;;-3.69;83.75;96195.63;29375;359;63009;-57
2022/12/12 02:15:25;;;;;;;0.70;0.70;;;;;;;-3.73;84.18;96197.91;29375;271;63011;-59
2022/12/12 02:16:41;;;;;;;0.70;0.70;;;;;;;-3.75;84.15;96198.13;29373;350;64013;-58
2022/12/12 02:18:10;;;;;;;0.80;0.80;;;;;;;-3.76;84.55;96196.50;29373;219;63005;-58
2022/12/12 02:19:30;;;;;;;0.73;0.73;;;;;;;-3.77;84.85;96205.47;29372;209;64013;-59
2022/12/12 02:20:37;;;;;;;0.80;0.80;;;;;;;-3.84;85.49;96193.34;29371;365;64009;-57
2022/12/12 02:21:34;;;;;;;0.70;0.70;;;;;;;-3.88;85.33;96202.75;29373;197;63008;-58
2022/12/12 02:22:46;;;;;;;0.70;0.70;;;;;;;-3.92;85.22;96198.91;29373;358;63005;-58
2022/12/12 02:24:06;;;;;;;0.73;0.73;;;;;;;-3.90;85.81;96202.16;29395;251;63009;-58
2022/12/12 02:25:17;;;;;;;0.80;0.80;;;;;;;-3.89;85.59;96196.66;29395;267;63005;-58
2022/12/12 02:26:26;;;;;;;0.68;0.68;;;;;;;-3.87;85.53;96193.78;29371;199;64013;-58
2022/12/12 02:27:46;;;;;;;0.80;0.80;;;;;;;-3.85;85.47;96191.72;29373;218;63009;-57
2022/12/12 02:30:04;;;;;;;0.83;0.83;;;;;;;-3.79;85.37;96201.41;88174;211;64004;-57
2022/12/12 02:31:17;;;;;;;0.70;0.70;;;;;;;-3.79;85.15;96198.78;29394;380;64009;-57
2022/12/12 02:32:07;;;;;;;0.80;0.80;;;;;;;-3.79;85.38;96190.81;29371;227;64009;-58
2022/12/12 02:33:09;;;;;;;0.73;0.73;;;;;;;-3.80;84.91;96195.31;29373;376;63009;-57
2022/12/12 02:34:14;;;;;;;0.80;0.80;;;;;;;-3.80;84.89;96190.00;29395;212;63004;-58
2022/12/12 02:35:10;;;;;;;0.70;0.70;;;;;;;-3.78;85.00;96192.44;29395;203;63015;-57
2022/12/12 02:36:01;;;;;;;0.80;0.80;;;;;;;-3.78;85.02;96197.75;29372;212;64009;-57
2022/12/12 02:37:03;;;;;;;0.80;0.80;;;;;;;-3.81;85.00;96192.91;29395;202;63016;-57
2022/12/12 02:37:50;;;;;;;0.70;0.70;;;;;;;-3.83;85.21;96200.25;29395;199;63005;-57
2022/12/12 02:38:33;;;;;;;0.80;0.80;;;;;;;-3.83;85.39;96200.25;29371;263;64013;-57
2022/12/12 02:39:26;;;;;;;0.73;0.73;;;;;;;-3.82;85.26;96202.69;29373;270;63004;-58
2022/12/12 02:40:47;;;;;;;0.80;0.80;;;;;;;-3.82;85.61;96194.75;29371;215;64013;-58
2022/12/12 02:41:50;;;;;;;0.82;0.82;;;;;;;-3.81;85.86;96198.22;29371;202;64009;-58
2022/12/12 02:42:44;;;;;;;0.70;0.70;;;;;;;-3.80;85.36;96202.44;29371;199;64014;-59
2022/12/12 02:43:33;;;;;;;1.00;1.00;;;;;;;-3.81;85.78;96198.22;29373;222;63005;-58
2022/12/12 02:44:29;;;;;;;0.90;0.90;;;;;;;-3.83;86.20;96195.78;29373;278;63009;-57
2022/12/12 02:45:30;;;;;;;0.90;0.90;;;;;;;-3.83;86.02;96198.44;29373;356;63005;-58
2022/12/12 02:46:10;;;;;;;0.82;0.82;;;;;;;-3.82;86.30;96197.41;29395;224;63009;-57
2022/12/12 02:47:10;;;;;;;0.70;0.70;;;;;;;-3.82;86.17;96201.88;29395;216;63004;-59
2022/12/12 02:47:51;;;;;;;0.73;0.73;;;;;;;-3.81;86.18;96200.84;29371;249;64013;-58
2022/12/12 02:48:32;;;;;;;0.77;0.77;;;;;;;-3.81;86.33;96204.28;29395;307;63004;-57
2022/12/12 02:49:37;;;;;;;0.80;0.80;;;;;;;-3.81;86.48;96200.84;29417;197;63012;-58
2022/12/12 02:50:13;;;;;;;0.80;0.80;;;;;;;-3.81;86.52;96206.94;29395;223;63005;-58
2022/12/12 02:50:47;;;;;;;0.75;0.75;;;;;;;-3.81;86.80;96214.09;29373;218;63009;-58
2022/12/12 02:51:20;;;;;;;0.70;0.70;;;;;;;-3.82;86.50;96212.50;29373;197;63005;-59
2022/12/12 02:51:52;;;;;;;0.70;0.70;;;;;;;-3.82;86.54;96209.84;29373;216;63009;-58
2022/12/12 02:52:25;;;;;;;0.70;0.70;;;;;;;-3.85;86.62;96212.91;29373;283;63005;-57
2022/12/12 02:52:59;;;;;;;0.80;0.80;;;;;;;-3.87;86.16;96209.69;29371;216;64013;-58
2022/12/12 02:53:30;;;;;;;0.70;0.70;;;;;;;-3.90;86.31;96204.81;29373;202;63005;-57